Time;durP1;ratioP1;P1;durP2;ratioP2;P2;SDS_P1;SDS_P2;PMS_P1;PMS_P2;Temp;Humidity;BMP_temperature;BMP_pressure;BME280_temperature;BME280_humidity;BME280_pressure;Samples;Min_cycle;Max_cycle;Signal;HPM_P1;HPM_P2
2020/12/24 00:02:48;;;;;;;1.13;1.00;;;11.10;97.80;;;;;;6249421;28;20045;-76
2020/12/24 00:05:50;;;;;;;0.88;0.80;;;11.00;97.80;;;;;;6249475;28;20045;-77
2020/12/24 00:08:51;;;;;;;2.83;0.82;;;11.10;97.50;;;;;;6249028;28;20038;-76
2020/12/24 00:11:55;;;;;;;7.05;0.95;;;11.10;97.30;;;;;;6250149;28;20050;-77
2020/12/24 00:14:56;;;;;;;1.08;0.85;;;11.10;97.00;;;;;;6247109;28;20053;-77
2020/12/24 00:17:57;;;;;;;1.92;0.70;;;11.10;96.60;;;;;;6248366;28;20107;-77
2020/12/24 00:20:59;;;;;;;1.27;0.88;;;11.10;96.20;;;;;;6248828;28;20045;-76
2020/12/24 00:24:00;;;;;;;2.90;0.63;;;11.10;95.90;;;;;;6248719;28;20057;-76
2020/12/24 00:27:03;;;;;;;1.85;0.60;;;11.10;95.30;;;;;;6248255;28;20465;-76
2020/12/24 00:30:05;;;;;;;1.75;0.57;;;11.10;94.60;;;;;;6248306;28;20103;-76
2020/12/24 00:33:06;;;;;;;2.22;1.13;;;11.10;93.50;;;;;;6247572;28;20128;-76
2020/12/24 00:36:08;;;;;;;1.75;0.82;;;11.10;93.50;;;;;;6248485;28;20056;-77
2020/12/24 00:39:09;;;;;;;0.77;0.68;;;11.10;93.60;;;;;;6247899;28;20133;-76
2020/12/24 00:42:11;;;;;;;0.60;0.50;;;11.10;93.30;;;;;;6248177;28;20414;-77
2020/12/24 00:45:12;;;;;;;0.52;0.50;;;11.10;93.10;;;;;;6247494;28;20132;-77
2020/12/24 00:48:14;;;;;;;1.33;0.63;;;11.10;93.10;;;;;;6249165;28;20133;-76
2020/12/24 00:51:15;;;;;;;1.58;0.98;;;11.10;93.10;;;;;;6247926;28;20054;-76
2020/12/24 00:54:16;;;;;;;1.20;0.90;;;11.10;93.10;;;;;;6248439;28;20056;-76
2020/12/24 00:57:18;;;;;;;1.33;0.80;;;11.30;96.20;;;;;;6247321;28;20116;-77
2020/12/24 01:00:20;;;;;;;0.70;0.70;;;11.10;93.80;;;;;;6248373;28;20463;-76
2020/12/24 01:03:21;;;;;;;0.88;0.60;;;11.10;94.00;;;;;;6247612;28;20134;-77
2020/12/24 01:06:22;;;;;;;0.50;0.45;;;11.10;94.50;;;;;;6247923;28;20148;-77
2020/12/24 01:09:24;;;;;;;1.67;0.85;;;11.10;94.90;;;;;;6247775;28;20128;-76
2020/12/24 01:12:26;;;;;;;3.20;0.68;;;11.10;95.10;;;;;;6247856;28;20077;-76
2020/12/24 01:15:27;;;;;;;3.30;0.80;;;11.10;95.20;;;;;;6246629;28;20128;-77
2020/12/24 01:18:29;;;;;;;1.20;0.70;;;11.10;95.10;;;;;;6247150;28;20076;-76
2020/12/24 01:21:30;;;;;;;0.55;0.40;;;11.10;94.70;;;;;;6247342;28;20461;-77
2020/12/24 01:24:31;;;;;;;1.00;0.68;;;11.10;94.60;;;;;;6247331;28;20045;-77
2020/12/24 01:27:34;;;;;;;0.70;0.63;;;11.10;94.50;;;;;;6246622;28;20065;-77
2020/12/24 01:30:35;;;;;;;4.13;0.70;;;11.10;94.10;;;;;;6247118;28;20152;-77
2020/12/24 01:33:36;;;;;;;1.58;0.70;;;11.10;93.90;;;;;;6246359;28;20427;-76
2020/12/24 01:36:38;;;;;;;0.50;0.50;;;11.10;93.60;;;;;;6247184;28;20049;-76
2020/12/24 01:39:39;;;;;;;2.47;0.60;;;11.10;92.90;;;;;;6246656;28;20534;-77
2020/12/24 01:42:41;;;;;;;1.08;0.75;;;11.10;92.40;;;;;;6246420;28;20050;-76
2020/12/24 01:45:43;;;;;;;2.08;0.55;;;11.10;91.70;;;;;;6246721;28;20503;-76
2020/12/24 01:48:44;;;;;;;2.03;0.57;;;11.00;91.20;;;;;;6246984;28;20219;-76
2020/12/24 01:51:50;;;;;;;2.92;0.65;;;11.00;88.60;;;;;;6246206;28;20041;-76
2020/12/24 01:54:51;;;;;;;2.67;0.70;;;10.90;85.90;;;;;;6242430;28;20045;-76
2020/12/24 01:57:53;;;;;;;1.08;0.82;;;10.90;85.80;;;;;;6221713;28;20450;-76
2020/12/24 02:00:54;;;;;;;0.93;0.40;;;10.90;85.70;;;;;;6222087;28;20053;-76
2020/12/24 02:03:56;;;;;;;0.60;0.60;;;10.80;85.60;;;;;;6222813;28;20137;-76
2020/12/24 02:06:57;;;;;;;1.08;0.80;;;10.80;84.40;;;;;;6221629;28;20073;-76
2020/12/24 02:09:59;;;;;;;1.38;0.65;;;10.80;84.00;;;;;;6221172;28;20060;-76
2020/12/24 02:13:02;;;;;;;3.28;1.08;;;10.70;84.50;;;;;;6221489;28;20094;-76
2020/12/24 02:16:03;;;;;;;2.05;0.65;;;10.70;85.30;;;;;;6221530;28;20072;-76
2020/12/24 02:19:05;;;;;;;2.08;0.68;;;10.70;84.80;;;;;;6221886;28;20070;-76
2020/12/24 02:22:08;;;;;;;3.42;1.33;;;10.70;84.50;;;;;;6221309;28;20085;-76
2020/12/24 02:25:09;;;;;;;1.45;0.70;;;10.70;83.80;;;;;;6221964;28;20173;-77
2020/12/24 02:28:11;;;;;;;3.08;0.60;;;10.70;84.30;;;;;;6222293;28;20136;-76
2020/12/24 02:31:12;;;;;;;0.47;0.45;;;10.70;85.10;;;;;;6221548;28;20053;-76
2020/12/24 02:34:13;;;;;;;0.80;0.60;;;10.60;85.70;;;;;;6221089;28;20045;-77
2020/12/24 02:37:16;;;;;;;3.00;0.90;;;10.60;86.60;;;;;;6222144;28;20041;-76
2020/12/24 02:40:18;;;;;;;1.17;0.73;;;10.60;86.60;;;;;;6223807;28;20488;-76
2020/12/24 02:43:19;;;;;;;1.42;0.77;;;10.50;86.90;;;;;;6252858;28;20086;-76
2020/12/24 02:46:20;;;;;;;1.27;0.63;;;10.50;86.00;;;;;;6253397;28;20042;-76
2020/12/24 02:49:21;;;;;;;0.95;0.45;;;10.50;85.80;;;;;;6253735;28;20097;-77
2020/12/24 02:52:24;;;;;;;1.85;0.68;;;10.50;85.90;;;;;;6254084;28;20046;-76
2020/12/24 02:55:25;;;;;;;2.13;0.60;;;10.40;86.10;;;;;;6252617;28;20040;-76
2020/12/24 02:58:26;;;;;;;1.65;0.60;;;10.30;85.40;;;;;;6252262;28;20061;-76
2020/12/24 03:01:27;;;;;;;0.60;0.45;;;10.30;85.70;;;;;;6223841;28;20128;-76
2020/12/24 03:04:29;;;;;;;0.38;0.38;;;10.20;85.80;;;;;;6221633;28;20053;-76
2020/12/24 03:07:31;;;;;;;3.83;0.32;;;10.10;86.00;;;;;;6220775;28;20435;-76
2020/12/24 03:10:32;;;;;;;0.63;0.50;;;10.10;87.00;;;;;;6220525;28;20542;-76
2020/12/24 03:13:33;;;;;;;1.83;0.55;;;10.10;87.00;;;;;;6220896;28;20049;-76
2020/12/24 03:16:35;;;;;;;1.33;0.45;;;10.10;86.50;;;;;;6221151;28;20075;-76
2020/12/24 03:19:36;;;;;;;1.10;0.40;;;10.10;87.00;;;;;;6220692;28;20096;-76
2020/12/24 03:22:38;;;;;;;3.20;1.35;;;10.10;88.20;;;;;;6220481;28;20503;-77
2020/12/24 03:25:39;;;;;;;3.15;1.02;;;10.00;89.50;;;;;;6220558;28;20053;-76
2020/12/24 03:28:41;;;;;;;9.75;1.73;;;10.00;89.90;;;;;;6220562;28;20046;-76
2020/12/24 03:31:42;;;;;;;3.55;0.50;;;9.90;90.20;;;;;;6220634;28;20073;-76
2020/12/24 03:34:43;;;;;;;2.67;0.60;;;9.90;90.50;;;;;;6220340;28;20060;-76
2020/12/24 03:37:45;;;;;;;2.60;0.50;;;9.80;90.70;;;;;;6220272;28;20563;-76
2020/12/24 03:40:47;;;;;;;0.52;0.50;;;9.80;90.80;;;;;;6220400;28;20136;-76
2020/12/24 03:43:48;;;;;;;2.83;0.75;;;9.70;91.10;;;;;;6220379;28;20054;-76
2020/12/24 03:46:49;;;;;;;1.90;1.80;;;9.60;91.50;;;;;;6219990;28;20044;-76
2020/12/24 03:49:50;;;;;;;5.47;1.30;;;9.60;91.80;;;;;;6224754;28;20095;-76
2020/12/24 03:52:53;;;;;;;5.40;0.77;;;9.60;92.00;;;;;;6224932;28;20081;-75
2020/12/24 03:55:54;;;;;;;4.20;2.15;;;9.60;92.10;;;;;;6225212;28;20062;-76
2020/12/24 03:58:55;;;;;;;1.60;0.93;;;9.50;92.50;;;;;;6224597;28;20081;-76
2020/12/24 04:01:57;;;;;;;0.80;0.60;;;9.50;92.60;;;;;;6224740;28;20049;-76
2020/12/24 04:04:58;;;;;;;3.25;0.57;;;9.40;92.80;;;;;;6224266;28;20466;-76
2020/12/24 04:08:00;;;;;;;1.73;0.60;;;9.40;92.90;;;;;;6224801;28;20132;-76
2020/12/24 04:11:01;;;;;;;1.60;0.70;;;9.40;93.30;;;;;;6225109;28;20046;-76
2020/12/24 04:14:03;;;;;;;1.88;0.60;;;9.40;93.00;;;;;;6224277;28;20414;-76
2020/12/24 04:17:04;;;;;;;2.38;0.50;;;9.30;92.70;;;;;;6224127;28;20530;-76
2020/12/24 04:20:05;;;;;;;1.13;0.52;;;9.30;92.90;;;;;;6225046;28;20132;-76
2020/12/24 04:23:07;;;;;;;1.02;0.50;;;9.30;93.00;;;;;;6224410;28;20073;-76
2020/12/24 04:26:09;;;;;;;3.72;0.43;;;9.30;92.60;;;;;;6224504;28;20202;-76
2020/12/24 04:29:10;;;;;;;0.50;0.47;;;9.20;92.40;;;;;;6224309;28;20187;-75
2020/12/24 04:32:12;;;;;;;2.75;0.73;;;9.10;92.60;;;;;;6224915;28;20128;-76
2020/12/24 04:35:13;;;;;;;0.50;0.50;;;9.00;92.50;;;;;;6223603;28;20430;-76
2020/12/24 04:38:15;;;;;;;3.03;0.40;;;9.00;92.80;;;;;;6223707;28;20081;-76
2020/12/24 04:41:17;;;;;;;1.00;0.43;;;8.90;92.30;;;;;;6223874;28;20077;-76
2020/12/24 04:44:18;;;;;;;1.85;1.75;;;8.90;92.40;;;;;;6224161;28;20133;-76
2020/12/24 04:47:21;;;;;;;0.50;0.50;;;9.00;92.20;;;;;;6223512;28;20128;-76
2020/12/24 04:50:25;;;;;;;4.05;0.70;;;9.00;92.10;;;;;;6224521;28;20052;-76
2020/12/24 04:53:27;;;;;;;3.60;0.60;;;9.10;91.90;;;;;;6223738;28;20400;-76
2020/12/24 04:56:29;;;;;;;3.80;0.60;;;9.10;91.50;;;;;;6224197;28;20092;-76
2020/12/24 04:59:30;;;;;;;3.90;0.50;;;9.20;91.20;;;;;;6223541;28;20052;-76
2020/12/24 05:02:31;;;;;;;2.53;0.55;;;9.30;91.20;;;;;;6226736;28;20050;-77
2020/12/24 05:05:33;;;;;;;0.70;0.65;;;9.30;90.90;;;;;;6225150;28;20092;-76
2020/12/24 05:08:35;;;;;;;0.63;0.50;;;9.30;90.40;;;;;;6223761;28;20080;-76
2020/12/24 05:11:37;;;;;;;2.13;1.70;;;9.40;90.20;;;;;;6224474;28;20081;-76
2020/12/24 05:14:39;;;;;;;3.35;0.63;;;9.40;89.60;;;;;;6225205;28;20130;-76
2020/12/24 05:17:40;;;;;;;1.13;0.52;;;9.40;88.90;;;;;;6224261;28;20107;-77
2020/12/24 05:20:42;;;;;;;2.17;0.80;;;9.50;88.70;;;;;;6224213;28;20050;-76
2020/12/24 05:23:44;;;;;;;0.88;0.60;;;9.50;88.50;;;;;;6224298;28;20519;-76
2020/12/24 05:26:45;;;;;;;0.93;0.60;;;9.50;87.80;;;;;;6224040;28;20057;-76
2020/12/24 05:29:49;;;;;;;4.32;0.95;;;9.60;87.30;;;;;;6222286;28;20645;-75
2020/12/24 05:32:51;;;;;;;2.75;0.50;;;9.60;85.80;;;;;;6222642;28;20056;-76
2020/12/24 05:35:52;;;;;;;3.97;0.85;;;9.70;85.30;;;;;;6223224;28;20060;-76
2020/12/24 05:38:54;;;;;;;5.03;1.30;;;9.70;83.70;;;;;;6222480;28;20080;-76
2020/12/24 05:42:02;;;;;;;4.20;0.80;;;9.80;83.80;;;;;;6222328;28;20066;-76
2020/12/24 05:45:15;;;;;;;3.42;0.65;;;9.80;83.90;;;;;;6222447;28;20050;-75
2020/12/24 05:48:16;;;;;;;2.47;0.60;;;9.80;82.50;;;;;;6222283;28;20120;-75
2020/12/24 05:51:19;;;;;;;3.88;0.50;;;9.70;81.60;;;;;;6222139;28;20061;-75
2020/12/24 05:54:21;;;;;;;1.92;1.48;;;9.70;81.80;;;;;;6222086;28;20050;-75
2020/12/24 05:57:24;;;;;;;5.00;1.10;;;9.80;81.10;;;;;;6222177;28;20129;-75
2020/12/24 06:00:32;;;;;;;2.40;0.60;;;9.90;79.80;;;;;;6223506;28;20124;-75
2020/12/24 06:03:35;;;;;;;;;;;9.90;79.80;;;;;;6222067;28;20057;-75
2020/12/24 06:06:43;;;;;;;7.72;0.70;;;9.90;79.90;;;;;;6221336;28;19925;-76
2020/12/24 06:09:46;;;;;;;1.67;0.60;;;9.90;80.60;;;;;;6221778;28;20057;-76
2020/12/24 06:12:51;;;;;;;2.90;0.60;;;9.90;81.30;;;;;;6220552;28;20129;-75
2020/12/24 06:15:57;;;;;;;1.38;0.82;;;9.90;82.30;;;;;;6222172;28;20141;-76
2020/12/24 06:19:00;;;;;;;2.55;0.82;;;9.80;82.80;;;;;;6221307;28;20591;-75
2020/12/24 06:22:01;;;;;;;2.33;0.70;;;9.70;84.30;;;;;;6221328;28;20161;-75
2020/12/24 06:25:04;;;;;;;4.82;0.60;;;;;;;;;;6217488;28;20069;-75
2020/12/24 06:28:11;;;;;;;6.22;1.17;;;9.50;86.40;;;;;;6221347;28;20046;-75
2020/12/24 06:31:13;;;;;;;3.73;0.83;;;9.40;89.60;;;;;;6221204;28;20134;-76
2020/12/24 06:34:24;;;;;;;12.57;2.35;;;9.20;88.30;;;;;;6221400;28;20049;-76
2020/12/24 06:37:26;;;;;;;2.55;1.00;;;9.10;88.50;;;;;;6220697;28;20455;-76
2020/12/24 06:40:31;;;;;;;2.40;1.70;;;9.50;90.00;;;;;;6221025;28;20822;-76
2020/12/24 06:43:40;;;;;;;3.97;0.98;;;9.00;90.00;;;;;;6221128;28;20050;-76
2020/12/24 06:46:57;;;;;;;2.33;0.88;;;8.90;90.20;;;;;;6220925;28;20054;-76
2020/12/24 06:49:58;;;;;;;2.92;0.75;;;8.80;90.20;;;;;;6221750;28;20163;-76
2020/12/24 06:53:22;;;;;;;5.20;1.15;;;8.70;90.20;;;;;;6248901;28;20052;-76
2020/12/24 06:56:24;;;;;;;10.75;1.90;;;8.70;90.20;;;;;;6255962;28;20107;-75
2020/12/24 06:59:27;;;;;;;2.35;0.80;;;8.80;90.30;;;;;;6257750;28;20518;-77
2020/12/24 07:02:29;;;;;;;3.30;1.17;;;8.70;90.50;;;;;;6252137;28;20053;-77
2020/12/24 07:05:44;;;;;;;11.15;1.30;;;8.80;90.30;;;;;;6220935;28;20064;-77
2020/12/24 07:08:47;;;;;;;7.45;1.00;;;8.80;90.30;;;;;;6235649;28;20125;-75
2020/12/24 07:11:50;;;;;;;2.95;0.98;;;8.70;90.20;;;;;;6227452;28;20552;-75
2020/12/24 07:14:52;;;;;;;3.50;0.90;;;8.70;90.50;;;;;;6237873;28;20049;-76
2020/12/24 07:17:57;;;;;;;4.43;1.00;;;8.60;90.80;;;;;;6240052;28;20041;-76
2020/12/24 07:21:00;;;;;;;5.65;1.10;;;8.60;91.30;;;;;;6244626;28;20539;-76
2020/12/24 07:24:03;;;;;;;7.07;1.15;;;8.50;91.90;;;;;;6242081;28;20547;-75
2020/12/24 07:27:07;;;;;;;5.18;1.08;;;8.40;92.00;;;;;;6246474;28;20521;-75
2020/12/24 07:30:08;;;;;;;5.57;0.98;;;8.40;92.40;;;;;;6247792;28;20041;-76
2020/12/24 07:33:10;;;;;;;4.22;0.93;;;8.30;92.80;;;;;;6244582;28;20095;-76
2020/12/24 07:36:12;;;;;;;5.40;1.10;;;8.20;93.00;;;;;;6236920;28;20156;-77
2020/12/24 07:39:13;;;;;;;2.97;0.88;;;8.20;93.20;;;;;;6237345;28;20041;-76
2020/12/24 07:42:22;;;;;;;5.05;0.88;;;8.20;93.40;;;;;;6240310;28;20053;-76
2020/12/24 07:45:24;;;;;;;5.53;1.40;;;8.20;93.70;;;;;;6240877;28;20042;-77
2020/12/24 07:48:25;;;;;;;9.00;1.65;;;8.10;94.00;;;;;;6241828;28;20051;-76
2020/12/24 07:51:27;;;;;;;4.35;1.27;;;8.10;94.60;;;;;;6247499;28;20041;-75
2020/12/24 07:54:29;;;;;;;6.05;1.35;;;8.20;94.70;;;;;;6246822;28;20099;-76
2020/12/24 07:57:31;;;;;;;5.10;2.13;;;8.00;94.50;;;;;;6244599;28;20054;-76
2020/12/24 08:00:40;;;;;;;4.30;1.13;;;8.00;94.70;;;;;;6228811;28;20408;-76
2020/12/24 08:03:41;;;;;;;8.00;1.17;;;7.90;94.90;;;;;;6243276;28;20075;-75
2020/12/24 08:06:43;;;;;;;15.05;2.45;;;7.80;95.20;;;;;;6244353;28;20060;-76
2020/12/24 08:09:44;;;;;;;13.85;2.47;;;7.80;95.40;;;;;;6243197;28;20045;-76
2020/12/24 08:12:46;;;;;;;5.00;0.98;;;7.80;95.90;;;;;;6246126;28;20127;-75
2020/12/24 08:15:50;;;;;;;10.73;1.48;;;7.80;96.10;;;;;;6244280;28;20057;-76
2020/12/24 08:19:00;;;;;;;4.90;1.48;;;7.80;96.20;;;;;;6246859;28;20045;-77
2020/12/24 08:22:05;;;;;;;5.35;1.65;;;7.80;96.50;;;;;;6247939;28;20148;-76
2020/12/24 08:25:08;;;;;;;6.65;1.33;;;7.80;96.70;;;;;;6256742;28;20050;-77
2020/12/24 08:28:10;;;;;;;9.02;3.20;;;7.70;96.90;;;;;;6242992;28;20042;-77
2020/12/24 08:31:12;;;;;;;6.63;1.98;;;7.70;96.80;;;;;;6236788;28;20136;-76
2020/12/24 08:34:14;;;;;;;7.53;1.20;;;7.80;96.90;;;;;;6238407;28;20052;-77
2020/12/24 08:37:26;;;;;;;4.15;1.30;;;7.70;97.20;;;;;;6244448;28;20514;-77
2020/12/24 08:40:29;;;;;;;7.13;1.67;;;7.70;97.70;;;;;;6222924;28;20054;-76
2020/12/24 08:43:32;;;;;;;7.30;3.03;;;7.70;97.70;;;;;;6251163;28;20412;-76
2020/12/24 08:46:33;;;;;;;8.68;3.63;;;7.70;97.80;;;;;;6249322;28;20050;-75
2020/12/24 08:49:40;;;;;;;5.25;2.60;;;7.70;98.00;;;;;;6230363;28;20042;-76
2020/12/24 08:52:43;;;;;;;6.93;1.55;;;7.80;98.30;;;;;;6241312;28;20049;-77
2020/12/24 08:55:44;;;;;;;5.38;1.73;;;7.80;98.50;;;;;;6240140;28;20041;-77
2020/12/24 08:58:51;;;;;;;9.77;2.17;;;7.70;98.60;;;;;;6246998;28;20069;-76
2020/12/24 09:01:52;;;;;;;11.23;1.58;;;7.80;98.80;;;;;;6250824;28;20141;-77
2020/12/24 09:04:54;;;;;;;9.18;6.75;;;7.70;99.10;;;;;;6248600;28;20534;-77
2020/12/24 09:07:55;;;;;;;46.92;36.85;;;7.70;99.20;;;;;;6246495;28;20045;-76
2020/12/24 09:10:57;;;;;;;10.52;3.85;;;7.70;99.40;;;;;;6251935;28;20065;-77
2020/12/24 09:14:00;;;;;;;41.00;20.30;;;7.80;99.60;;;;;;6232865;28;20069;-76
2020/12/24 09:17:02;;;;;;;34.03;20.27;;;7.80;99.70;;;;;;6224127;28;20133;-77
2020/12/24 09:20:05;;;;;;;13.15;7.43;;;7.80;99.70;;;;;;6236234;28;20045;-76
2020/12/24 09:23:11;;;;;;;21.90;12.32;;;7.80;99.70;;;;;;6240968;28;20506;-76
2020/12/24 09:26:12;;;;;;;43.83;25.73;;;7.90;99.70;;;;;;6244766;28;20048;-76
2020/12/24 09:29:15;;;;;;;19.67;10.70;;;7.80;99.90;;;;;;6247750;28;20120;-76
2020/12/24 09:32:16;;;;;;;94.45;62.95;;;7.80;99.90;;;;;;6248113;28;20071;-77
2020/12/24 09:35:18;;;;;;;45.10;28.95;;;7.80;99.90;;;;;;6244405;28;20128;-77
2020/12/24 09:38:19;;;;;;;18.92;9.75;;;7.80;99.90;;;;;;6248197;28;20510;-77
2020/12/24 09:41:21;;;;;;;27.58;13.20;;;7.90;99.90;;;;;;6249588;28;20052;-77
2020/12/24 09:44:23;;;;;;;4.47;1.73;;;7.80;99.90;;;;;;6253219;28;20060;-78
2020/12/24 09:47:24;;;;;;;10.43;2.92;;;7.90;99.90;;;;;;6261901;28;20083;-77
2020/12/24 09:50:26;;;;;;;15.57;8.00;;;7.90;99.90;;;;;;6248009;28;20100;-80
2020/12/24 09:53:27;;;;;;;26.65;13.57;;;7.90;99.90;;;;;;6248166;28;20404;-78
2020/12/24 09:56:28;;;;;;;7.18;3.25;;;7.90;99.90;;;;;;6249877;28;20077;-76
2020/12/24 09:59:31;;;;;;;3.97;3.00;;;8.00;99.90;;;;;;6233392;28;20038;-79
2020/12/24 10:02:32;;;;;;;6.07;1.85;;;8.10;99.90;;;;;;6249882;28;20050;-78
2020/12/24 10:05:33;;;;;;;14.10;6.97;;;8.10;99.80;;;;;;6255654;28;20061;-78
2020/12/24 10:08:35;;;;;;;9.32;2.97;;;8.20;99.90;;;;;;6256067;28;20072;-77
2020/12/24 10:11:36;;;;;;;9.45;2.30;;;8.20;99.80;;;;;;6257550;28;20065;-77
2020/12/24 10:14:38;;;;;;;3.83;2.50;;;8.20;99.90;;;;;;6251668;28;20060;-77
2020/12/24 10:17:39;;;;;;;9.50;3.22;;;8.30;99.90;;;;;;6250033;28;20630;-78
2020/12/24 10:20:41;;;;;;;8.73;1.70;;;8.40;99.90;;;;;;6252818;28;20053;-76
2020/12/24 10:23:43;;;;;;;6.63;1.50;;;8.40;99.60;;;;;;6249767;28;20041;-77
2020/12/24 10:26:44;;;;;;;3.88;1.13;;;8.50;99.60;;;;;;6253580;28;20081;-76
2020/12/24 10:29:47;;;;;;;6.07;2.30;;;8.50;99.40;;;;;;6255989;28;20065;-78
2020/12/24 10:32:48;;;;;;;3.60;0.98;;;8.50;99.10;;;;;;6249721;28;20483;-79
2020/12/24 10:35:49;;;;;;;5.18;1.30;;;8.50;99.20;;;;;;6243542;28;20131;-79
2020/12/24 10:38:51;;;;;;;6.82;1.63;;;8.50;99.30;;;;;;6251844;28;20056;-80
2020/12/24 10:41:52;;;;;;;7.38;5.15;;;8.60;99.20;;;;;;6240697;28;20128;-77
2020/12/24 10:44:54;;;;;;;15.48;10.38;;;8.60;98.80;;;;;;6254004;28;20049;-78
2020/12/24 10:47:56;;;;;;;6.80;4.57;;;8.70;98.80;;;;;;6247140;28;20496;-78
2020/12/24 10:50:57;;;;;;;4.60;3.20;;;8.70;98.70;;;;;;6250621;28;20049;-79
2020/12/24 10:53:58;;;;;;;10.20;5.85;;;8.70;98.40;;;;;;6252106;28;20045;-78
2020/12/24 10:57:00;;;;;;;12.30;3.88;;;8.80;98.40;;;;;;6239188;28;20140;-80
2020/12/24 11:00:04;;;;;;;2.72;2.00;;;8.90;98.00;;;;;;6248024;28;20045;-77
2020/12/24 11:03:05;;;;;;;3.80;1.35;;;9.00;97.50;;;;;;6251111;28;20733;-77
2020/12/24 11:06:07;;;;;;;2.15;0.95;;;9.10;96.50;;;;;;6249073;28;20077;-77
2020/12/24 11:09:08;;;;;;;4.93;2.08;;;9.10;96.40;;;;;;6252895;28;20069;-77
2020/12/24 11:12:09;;;;;;;2.15;0.57;;;9.10;96.50;;;;;;6252554;28;20045;-77
2020/12/24 11:15:11;;;;;;;1.77;0.82;;;9.20;96.50;;;;;;6247914;28;20045;-80
2020/12/24 11:18:13;;;;;;;7.15;1.13;;;9.20;96.20;;;;;;6251376;28;20045;-78
2020/12/24 11:21:14;;;;;;;2.33;0.75;;;9.20;95.60;;;;;;6260195;28;20042;-77
2020/12/24 11:24:16;;;;;;;2.13;0.60;;;9.20;95.60;;;;;;6245908;28;20085;-77
2020/12/24 11:27:17;;;;;;;3.42;0.90;;;9.20;95.40;;;;;;6258216;28;20050;-81
2020/12/24 11:30:19;;;;;;;3.53;0.60;;;9.20;94.90;;;;;;6255164;28;20098;-78
2020/12/24 11:33:20;;;;;;;1.92;0.90;;;9.30;94.90;;;;;;6254078;28;20055;-77
2020/12/24 11:36:22;;;;;;;2.35;2.03;;;9.20;94.00;;;;;;6246139;28;20053;-80
2020/12/24 11:39:24;;;;;;;1.65;0.55;;;9.20;93.40;;;;;;6258560;28;20064;-78
2020/12/24 11:42:25;;;;;;;1.70;1.30;;;9.20;93.30;;;;;;6245583;28;20080;-78
2020/12/24 11:45:27;;;;;;;8.73;3.35;;;9.20;93.40;;;;;;6255488;28;20045;-78
2020/12/24 11:48:28;;;;;;;3.95;1.17;;;9.30;93.00;;;;;;6258667;28;20065;-76
2020/12/24 11:51:30;;;;;;;6.97;1.15;;;9.40;93.10;;;;;;6241663;28;20077;-83
2020/12/24 11:54:31;;;;;;;1.27;0.70;;;9.40;92.10;;;;;;6250304;28;20144;-76
2020/12/24 11:57:33;;;;;;;1.52;0.73;;;9.40;92.40;;;;;;6248017;28;20038;-76
2020/12/24 12:00:35;;;;;;;0.85;0.50;;;9.30;91.50;;;;;;6240892;28;20092;-77
2020/12/24 12:03:36;;;;;;;5.72;0.85;;;9.30;92.10;;;;;;6242743;28;20054;-76
2020/12/24 12:06:38;;;;;;;3.33;0.77;;;9.30;92.00;;;;;;6248364;28;20167;-77
2020/12/24 12:09:39;;;;;;;7.13;1.20;;;9.30;92.10;;;;;;6242871;28;20761;-77
2020/12/24 12:12:40;;;;;;;6.22;3.15;;;9.40;91.40;;;;;;6241698;28;20165;-77
2020/12/24 12:15:43;;;;;;;11.50;6.07;;;9.50;91.70;;;;;;6245221;28;20535;-77
2020/12/24 12:18:44;;;;;;;4.47;2.67;;;9.40;91.60;;;;;;6238937;28;20045;-76
2020/12/24 12:21:46;;;;;;;6.28;2.83;;;9.50;92.10;;;;;;6250252;28;20049;-77
2020/12/24 12:24:47;;;;;;;3.25;1.65;;;9.50;91.30;;;;;;6251118;28;20088;-76
2020/12/24 12:27:48;;;;;;;1.98;0.88;;;;;;;;;;6248468;28;20164;-76
2020/12/24 12:30:51;;;;;;;2.75;1.73;;;9.50;91.00;;;;;;6237802;28;20621;-77
2020/12/24 12:33:53;;;;;;;2.15;1.30;;;9.50;91.20;;;;;;6236805;28;20121;-76
2020/12/24 12:36:55;;;;;;;2.10;1.10;;;9.50;90.70;;;;;;6241866;28;20115;-77
2020/12/24 12:39:56;;;;;;;1.45;1.25;;;9.40;90.90;;;;;;6247510;28;20049;-76
2020/12/24 12:42:58;;;;;;;1.92;0.98;;;9.40;91.10;;;;;;6246604;28;20049;-76
2020/12/24 12:46:00;;;;;;;1.38;0.70;;;9.40;90.80;;;;;;6231696;28;20041;-77
2020/12/24 12:49:01;;;;;;;1.30;0.60;;;9.40;92.00;;;;;;6245532;28;20398;-77
2020/12/24 12:52:02;;;;;;;3.05;0.90;;;9.30;90.80;;;;;;6246638;28;20096;-76
2020/12/24 12:55:05;;;;;;;4.63;1.25;;;9.30;91.00;;;;;;6243298;28;20516;-76
2020/12/24 12:58:07;;;;;;;1.38;0.50;;;9.20;91.50;;;;;;6243602;28;20041;-77
2020/12/24 13:01:09;;;;;;;1.05;0.50;;;9.20;91.90;;;;;;6247609;28;20049;-76
2020/12/24 13:04:11;;;;;;;1.45;0.47;;;9.10;92.40;;;;;;6248817;28;20109;-77
2020/12/24 13:07:12;;;;;;;2.17;0.70;;;8.90;93.00;;;;;;6238503;28;20154;-77
2020/12/24 13:10:14;;;;;;;1.48;0.95;;;8.80;93.40;;;;;;6251839;28;20125;-77
2020/12/24 13:13:15;;;;;;;2.72;2.10;;;8.70;94.10;;;;;;6252256;28;20451;-77
2020/12/24 13:16:24;;;;;;;26.85;13.95;;;8.60;94.70;;;;;;6233123;28;20128;-77
2020/12/24 13:19:25;;;;;;;60.70;31.27;;;8.60;95.20;;;;;;6233789;28;20571;-78
2020/12/24 13:22:27;;;;;;;76.68;33.70;;;8.50;95.70;;;;;;6240084;28;20069;-78
2020/12/24 13:25:28;;;;;;;27.25;15.25;;;8.40;96.40;;;;;;6230662;28;20109;-77
2020/12/24 13:28:29;;;;;;;23.67;14.70;;;8.40;96.60;;;;;;6227924;28;20129;-76
2020/12/24 13:31:31;;;;;;;14.10;10.40;;;8.40;96.90;;;;;;6233163;28;20487;-77
2020/12/24 13:34:33;;;;;;;12.50;9.80;;;8.40;97.10;;;;;;6245896;28;20085;-78
2020/12/24 13:37:34;;;;;;;6.95;6.45;;;8.30;97.50;;;;;;6243584;28;20304;-78
2020/12/24 13:40:36;;;;;;;3.08;2.85;;;8.40;97.80;;;;;;6247881;28;20048;-77
2020/12/24 13:43:37;;;;;;;3.97;2.72;;;8.40;98.00;;;;;;6238256;28;20092;-78
2020/12/24 13:46:39;;;;;;;4.50;3.08;;;8.40;98.10;;;;;;6224966;28;20460;-78
2020/12/24 13:49:40;;;;;;;2.10;1.60;;;8.40;98.30;;;;;;6245534;28;20048;-77
2020/12/24 13:52:42;;;;;;;3.78;1.90;;;8.40;98.50;;;;;;6236514;28;20045;-77
2020/12/24 13:55:44;;;;;;;1.88;1.40;;;8.40;98.70;;;;;;6238357;28;20041;-77
2020/12/24 13:58:45;;;;;;;1.30;1.20;;;8.40;98.80;;;;;;6244297;28;20051;-76
2020/12/24 14:01:52;;;;;;;3.30;1.48;;;8.40;99.00;;;;;;6247120;28;20041;-77
2020/12/24 14:04:53;;;;;;;1.38;1.10;;;8.40;99.10;;;;;;6241364;28;20121;-77
2020/12/24 14:07:54;;;;;;;3.85;0.98;;;8.40;99.20;;;;;;6244127;28;20049;-76
2020/12/24 14:10:56;;;;;;;10.70;7.13;;;8.40;99.40;;;;;;6245827;28;20473;-76
2020/12/24 14:13:57;;;;;;;4.47;1.42;;;8.30;99.40;;;;;;6232369;28;20056;-76
2020/12/24 14:16:59;;;;;;;3.42;2.17;;;8.30;99.60;;;;;;6231759;28;20049;-77
2020/12/24 14:20:01;;;;;;;4.53;1.83;;;8.40;99.80;;;;;;6237218;28;20048;-77
2020/12/24 14:23:03;;;;;;;3.50;1.60;;;8.40;99.70;;;;;;6243876;28;20137;-76
2020/12/24 14:26:05;;;;;;;1.10;1.02;;;8.40;99.90;;;;;;6240290;28;20580;-77
2020/12/24 14:29:06;;;;;;;1.85;1.05;;;8.50;99.90;;;;;;6241393;28;20049;-76
2020/12/24 14:32:08;;;;;;;1.15;0.73;;;8.40;99.80;;;;;;6243781;28;20144;-76
2020/12/24 14:35:09;;;;;;;1.17;0.60;;;8.30;99.80;;;;;;6240265;28;20484;-76
2020/12/24 14:38:11;;;;;;;2.92;0.75;;;8.30;99.90;;;;;;6242326;28;20057;-78
2020/12/24 14:41:13;;;;;;;0.98;0.80;;;8.30;99.90;;;;;;6236817;28;20092;-77
2020/12/24 14:44:14;;;;;;;1.50;0.93;;;8.20;99.90;;;;;;6242025;28;20037;-76
2020/12/24 14:47:16;;;;;;;1.83;1.10;;;8.20;99.90;;;;;;6244606;28;20045;-75
2020/12/24 14:50:19;;;;;;;1.20;0.77;;;8.20;99.90;;;;;;6244743;28;20135;-77
2020/12/24 14:53:20;;;;;;;1.05;0.80;;;8.20;99.90;;;;;;6243370;28;20530;-76
2020/12/24 14:56:25;;;;;;;0.82;0.80;;;8.20;99.90;;;;;;6244342;28;20131;-76
2020/12/24 14:59:26;;;;;;;1.08;0.93;;;8.10;99.90;;;;;;6233935;28;20447;-77
2020/12/24 15:02:29;;;;;;;1.45;0.80;;;8.10;99.90;;;;;;6219323;28;20551;-77
2020/12/24 15:05:31;;;;;;;10.93;6.97;;;8.10;99.90;;;;;;6224130;28;20169;-78
2020/12/24 15:08:32;;;;;;;3.72;0.95;;;8.00;99.90;;;;;;6238967;28;20522;-75
2020/12/24 15:11:34;;;;;;;1.85;0.80;;;8.00;99.90;;;;;;6233134;28;20042;-79
2020/12/24 15:14:35;;;;;;;1.10;0.93;;;8.00;99.90;;;;;;6234947;28;20042;-78
2020/12/24 15:17:37;;;;;;;1.85;1.40;;;8.00;99.90;;;;;;6225636;28;20120;-78
2020/12/24 15:20:38;;;;;;;1.50;1.20;;;8.00;99.90;;;;;;6221622;28;20065;-77
2020/12/24 15:23:40;;;;;;;1.95;0.90;;;8.00;99.90;;;;;;6231204;28;20049;-79
2020/12/24 15:26:41;;;;;;;1.45;1.30;;;8.00;99.90;;;;;;6250750;28;20057;-78
2020/12/24 15:29:42;;;;;;;8.35;2.58;;;8.00;99.90;;;;;;6248401;28;20137;-78
2020/12/24 15:32:45;;;;;;;1.10;1.00;;;8.00;99.90;;;;;;6248640;28;20045;-75
2020/12/24 15:35:46;;;;;;;2.33;0.88;;;8.00;99.90;;;;;;6248705;28;20064;-78
2020/12/24 15:38:47;;;;;;;4.18;1.02;;;8.00;99.90;;;;;;6242285;28;20046;-77
2020/12/24 15:41:49;;;;;;;2.15;1.05;;;7.90;99.90;;;;;;6245921;28;20084;-78
2020/12/24 15:44:50;;;;;;;1.88;1.10;;;7.90;99.90;;;;;;6249823;28;20069;-78
2020/12/24 15:47:53;;;;;;;3.00;1.38;;;7.90;99.90;;;;;;6248978;28;20080;-78
2020/12/24 15:50:54;;;;;;;8.60;5.43;;;7.90;99.90;;;;;;6252586;28;20069;-78
2020/12/24 15:53:55;;;;;;;4.97;2.00;;;7.90;99.90;;;;;;6246210;28;20038;-78
2020/12/24 15:56:57;;;;;;;13.88;8.65;;;7.90;99.90;;;;;;6247479;28;20045;-77